sensor_id;sensor_type;location;lat;lon;timestamp;pressure;altitude;pressure_sealevel;temperature;humidity
76592;BME280;65481;47.600;19.682;2023-04-24T00:03:06;99574.88;;;9.12;66.28
76592;BME280;65481;47.600;19.682;2023-04-24T00:08:08;99573.13;;;8.53;69.00
76592;BME280;65481;47.600;19.682;2023-04-24T00:13:08;99563.78;;;8.57;69.65
76592;BME280;65481;47.600;19.682;2023-04-24T00:18:09;99556.06;;;8.79;69.38
76592;BME280;65481;47.600;19.682;2023-04-24T00:23:09;99555.47;;;8.89;69.71
76592;BME280;65481;47.600;19.682;2023-04-24T00:28:10;99559.91;;;9.00;69.33
76592;BME280;65481;47.600;19.682;2023-04-24T00:33:10;99554.44;;;8.90;70.15
76592;BME280;65481;47.600;19.682;2023-04-24T00:38:11;99548.19;;;8.79;70.64
76592;BME280;65481;47.600;19.682;2023-04-24T00:43:11;99544.63;;;8.85;70.34
76592;BME280;65481;47.600;19.682;2023-04-24T00:48:12;99548.41;;;8.89;70.34
76592;BME280;65481;47.600;19.682;2023-04-24T00:53:13;99539.84;;;8.70;71.02
76592;BME280;65481;47.600;19.682;2023-04-24T00:58:14;99541.81;;;8.75;70.92
76592;BME280;65481;47.600;19.682;2023-04-24T01:03:15;99547.66;;;8.53;71.42
76592;BME280;65481;47.600;19.682;2023-04-24T01:08:16;99545.72;;;8.48;72.13
76592;BME280;65481;47.600;19.682;2023-04-24T01:13:17;99544.56;;;8.44;72.18
76592;BME280;65481;47.600;19.682;2023-04-24T01:18:18;99547.28;;;8.73;71.69
76592;BME280;65481;47.600;19.682;2023-04-24T01:23:19;99540.41;;;8.72;73.13
76592;BME280;65481;47.600;19.682;2023-04-24T01:28:20;99551.97;;;8.71;73.86
76592;BME280;65481;47.600;19.682;2023-04-24T01:33:22;99545.31;;;8.81;74.12
76592;BME280;65481;47.600;19.682;2023-04-24T01:38:22;99532.75;;;8.83;75.61
76592;BME280;65481;47.600;19.682;2023-04-24T01:43:23;99537.16;;;9.23;74.88
76592;BME280;65481;47.600;19.682;2023-04-24T01:48:24;99532.22;;;9.55;74.01
76592;BME280;65481;47.600;19.682;2023-04-24T01:53:25;99527.91;;;9.66;73.55
76592;BME280;65481;47.600;19.682;2023-04-24T01:58:25;99508.59;;;9.78;73.06
76592;BME280;65481;47.600;19.682;2023-04-24T02:03:27;99507.06;;;9.82;72.91
76592;BME280;65481;47.600;19.682;2023-04-24T02:08:27;99508.34;;;9.96;72.47
76592;BME280;65481;47.600;19.682;2023-04-24T02:13:28;99500.59;;;10.07;72.27
76592;BME280;65481;47.600;19.682;2023-04-24T02:18:28;99498.81;;;10.12;72.39
76592;BME280;65481;47.600;19.682;2023-04-24T02:23:29;99488.84;;;10.14;72.50
76592;BME280;65481;47.600;19.682;2023-04-24T02:28:29;99495.78;;;10.21;72.76
76592;BME280;65481;47.600;19.682;2023-04-24T02:33:30;99485.22;;;10.21;72.80
76592;BME280;65481;47.600;19.682;2023-04-24T02:38:30;99473.13;;;10.25;72.50
76592;BME280;65481;47.600;19.682;2023-04-24T02:43:31;99476.59;;;10.25;72.56
76592;BME280;65481;47.600;19.682;2023-04-24T02:48:31;99472.59;;;10.23;72.73
76592;BME280;65481;47.600;19.682;2023-04-24T02:53:32;99469.09;;;10.17;73.11
76592;BME280;65481;47.600;19.682;2023-04-24T02:58:33;99458.53;;;10.17;73.49
76592;BME280;65481;47.600;19.682;2023-04-24T03:03:34;99466.03;;;10.25;73.36
76592;BME280;65481;47.600;19.682;2023-04-24T03:08:35;99454.53;;;10.32;73.41
76592;BME280;65481;47.600;19.682;2023-04-24T03:13:35;99445.53;;;10.33;73.45
76592;BME280;65481;47.600;19.682;2023-04-24T03:18:36;99436.78;;;10.27;73.98
76592;BME280;65481;47.600;19.682;2023-04-24T03:23:36;99441.81;;;10.28;74.01
76592;BME280;65481;47.600;19.682;2023-04-24T03:28:36;99439.69;;;10.25;75.02
76592;BME280;65481;47.600;19.682;2023-04-24T03:33:37;99457.09;;;10.26;75.15
76592;BME280;65481;47.600;19.682;2023-04-24T03:38:37;99467.16;;;10.29;75.48
76592;BME280;65481;47.600;19.682;2023-04-24T03:43:38;99470.41;;;10.37;75.42
76592;BME280;65481;47.600;19.682;2023-04-24T03:48:39;99473.19;;;10.47;75.06
76592;BME280;65481;47.600;19.682;2023-04-24T03:53:39;99466.94;;;10.53;75.13
76592;BME280;65481;47.600;19.682;2023-04-24T03:58:40;99444.19;;;10.47;77.70
76592;BME280;65481;47.600;19.682;2023-04-24T04:03:41;99457.31;;;10.25;84.00
76592;BME280;65481;47.600;19.682;2023-04-24T04:08:41;99479.63;;;10.17;90.57
76592;BME280;65481;47.600;19.682;2023-04-24T04:13:42;99483.47;;;10.09;94.55
76592;BME280;65481;47.600;19.682;2023-04-24T04:18:43;99481.22;;;10.18;95.92
76592;BME280;65481;47.600;19.682;2023-04-24T04:23:44;99473.41;;;10.23;97.76
76592;BME280;65481;47.600;19.682;2023-04-24T04:28:44;99454.38;;;10.21;100.00
76592;BME280;65481;47.600;19.682;2023-04-24T04:33:45;99458.63;;;10.22;100.00
76592;BME280;65481;47.600;19.682;2023-04-24T04:38:45;99461.19;;;10.17;100.00
76592;BME280;65481;47.600;19.682;2023-04-24T04:43:46;99462.22;;;10.16;100.00
76592;BME280;65481;47.600;19.682;2023-04-24T04:48:47;99471.69;;;10.12;100.00
76592;BME280;65481;47.600;19.682;2023-04-24T04:53:48;99456.91;;;10.11;100.00
76592;BME280;65481;47.600;19.682;2023-04-24T04:58:49;99455.13;;;10.17;100.00
76592;BME280;65481;47.600;19.682;2023-04-24T05:03:50;99458.31;;;10.19;100.00
76592;BME280;65481;47.600;19.682;2023-04-24T05:08:50;99459.97;;;10.25;100.00
76592;BME280;65481;47.600;19.682;2023-04-24T05:13:51;99460.59;;;10.32;100.00
76592;BME280;65481;47.600;19.682;2023-04-24T05:18:52;99464.91;;;10.38;100.00
76592;BME280;65481;47.600;19.682;2023-04-24T05:23:52;99456.25;;;10.43;100.00
76592;BME280;65481;47.600;19.682;2023-04-24T05:28:53;99451.06;;;10.48;100.00
76592;BME280;65481;47.600;19.682;2023-04-24T05:33:53;99457.00;;;10.60;100.00
76592;BME280;65481;47.600;19.682;2023-04-24T05:38:54;99435.22;;;10.70;100.00
76592;BME280;65481;47.600;19.682;2023-04-24T05:43:55;99437.16;;;10.80;100.00
76592;BME280;65481;47.600;19.682;2023-04-24T05:48:56;99440.09;;;11.11;100.00
76592;BME280;65481;47.600;19.682;2023-04-24T05:53:56;99432.06;;;11.33;100.00
76592;BME280;65481;47.600;19.682;2023-04-24T05:58:57;99436.50;;;11.60;100.00
76592;BME280;65481;47.600;19.682;2023-04-24T06:03:57;99434.47;;;11.73;100.00
76592;BME280;65481;47.600;19.682;2023-04-24T06:08:58;99426.84;;;11.76;100.00
76592;BME280;65481;47.600;19.682;2023-04-24T06:13:59;99421.56;;;11.81;100.00
76592;BME280;65481;47.600;19.682;2023-04-24T06:18:59;99431.75;;;12.00;100.00
76592;BME280;65481;47.600;19.682;2023-04-24T06:24:00;99423.69;;;12.22;100.00
76592;BME280;65481;47.600;19.682;2023-04-24T06:29:00;99419.22;;;12.38;100.00
76592;BME280;65481;47.600;19.682;2023-04-24T06:34:01;99420.31;;;12.48;100.00
76592;BME280;65481;47.600;19.682;2023-04-24T06:39:02;99424.28;;;12.45;100.00
76592;BME280;65481;47.600;19.682;2023-04-24T06:44:06;99427.16;;;12.38;100.00
76592;BME280;65481;47.600;19.682;2023-04-24T06:49:07;99433.31;;;12.54;100.00
76592;BME280;65481;47.600;19.682;2023-04-24T06:54:07;99440.19;;;12.55;100.00
76592;BME280;65481;47.600;19.682;2023-04-24T06:59:08;99438.88;;;12.58;100.00
76592;BME280;65481;47.600;19.682;2023-04-24T07:04:08;99453.91;;;12.47;100.00
76592;BME280;65481;47.600;19.682;2023-04-24T07:09:09;99451.25;;;12.37;100.00
76592;BME280;65481;47.600;19.682;2023-04-24T07:14:09;99441.69;;;12.31;100.00
76592;BME280;65481;47.600;19.682;2023-04-24T07:19:11;99453.13;;;12.52;100.00
76592;BME280;65481;47.600;19.682;2023-04-24T07:24:11;99451.59;;;12.61;100.00
76592;BME280;65481;47.600;19.682;2023-04-24T07:29:13;99462.47;;;12.70;100.00
76592;BME280;65481;47.600;19.682;2023-04-24T07:34:14;99469.38;;;12.86;100.00
76592;BME280;65481;47.600;19.682;2023-04-24T07:39:15;99468.56;;;12.76;100.00
76592;BME280;65481;47.600;19.682;2023-04-24T07:44:17;99470.44;;;12.85;100.00
76592;BME280;65481;47.600;19.682;2023-04-24T07:49:17;99474.69;;;12.97;100.00
76592;BME280;65481;47.600;19.682;2023-04-24T07:54:18;99471.25;;;13.07;100.00
76592;BME280;65481;47.600;19.682;2023-04-24T07:59:18;99467.06;;;13.16;100.00
76592;BME280;65481;47.600;19.682;2023-04-24T08:04:19;99454.59;;;12.96;100.00
76592;BME280;65481;47.600;19.682;2023-04-24T08:09:19;99445.03;;;12.90;100.00
76592;BME280;65481;47.600;19.682;2023-04-24T08:14:20;99448.47;;;12.80;100.00
76592;BME280;65481;47.600;19.682;2023-04-24T08:19:20;99428.31;;;12.73;100.00
76592;BME280;65481;47.600;19.682;2023-04-24T08:24:22;99423.81;;;12.69;100.00
76592;BME280;65481;47.600;19.682;2023-04-24T08:29:23;99450.25;;;12.64;100.00
76592;BME280;65481;47.600;19.682;2023-04-24T08:34:23;99451.59;;;12.61;100.00
76592;BME280;65481;47.600;19.682;2023-04-24T08:39:23;99454.72;;;12.53;100.00
76592;BME280;65481;47.600;19.682;2023-04-24T08:44:24;99446.53;;;12.54;100.00
76592;BME280;65481;47.600;19.682;2023-04-24T08:49:27;99445.75;;;12.59;100.00
76592;BME280;65481;47.600;19.682;2023-04-24T08:54:28;99450.84;;;12.81;100.00
76592;BME280;65481;47.600;19.682;2023-04-24T08:59:30;99446.66;;;13.11;100.00
76592;BME280;65481;47.600;19.682;2023-04-24T09:04:33;99447.72;;;13.36;100.00
76592;BME280;65481;47.600;19.682;2023-04-24T09:09:35;99451.97;;;13.37;100.00
76592;BME280;65481;47.600;19.682;2023-04-24T09:14:36;99450.94;;;13.69;100.00
76592;BME280;65481;47.600;19.682;2023-04-24T09:19:40;99448.25;;;13.85;100.00
76592;BME280;65481;47.600;19.682;2023-04-24T09:24:40;99443.97;;;13.94;100.00
76592;BME280;65481;47.600;19.682;2023-04-24T09:29:54;99443.13;;;14.09;100.00
76592;BME280;65481;47.600;19.682;2023-04-24T09:35:11;99438.84;;;14.18;100.00
76592;BME280;65481;47.600;19.682;2023-04-24T09:40:14;99432.63;;;14.49;100.00
76592;BME280;65481;47.600;19.682;2023-04-24T09:45:15;99428.03;;;14.65;100.00
76592;BME280;65481;47.600;19.682;2023-04-24T09:50:16;99421.84;;;14.80;100.00
76592;BME280;65481;47.600;19.682;2023-04-24T09:55:19;99425.09;;;15.11;100.00
76592;BME280;65481;47.600;19.682;2023-04-24T10:00:25;99410.56;;;15.92;100.00
76592;BME280;65481;47.600;19.682;2023-04-24T10:05:29;99397.50;;;16.97;100.00
76592;BME280;65481;47.600;19.682;2023-04-24T10:10:31;99403.38;;;18.29;99.81
76592;BME280;65481;47.600;19.682;2023-04-24T10:15:32;99411.00;;;19.41;85.33
76592;BME280;65481;47.600;19.682;2023-04-24T10:20:34;99395.66;;;19.96;75.64
76592;BME280;65481;47.600;19.682;2023-04-24T10:25:36;99401.69;;;19.70;72.33
76592;BME280;65481;47.600;19.682;2023-04-24T10:30:43;99400.34;;;18.96;75.79
76592;BME280;65481;47.600;19.682;2023-04-24T10:35:45;99388.06;;;18.95;75.35
76592;BME280;65481;47.600;19.682;2023-04-24T10:40:49;99393.63;;;18.61;75.53
76592;BME280;65481;47.600;19.682;2023-04-24T10:46:03;99392.34;;;18.96;72.21
76592;BME280;65481;47.600;19.682;2023-04-24T10:51:04;99373.41;;;18.69;73.01
76592;BME280;65481;47.600;19.682;2023-04-24T10:56:08;99378.72;;;18.46;74.73
76592;BME280;65481;47.600;19.682;2023-04-24T11:06:33;99379.25;;;18.35;74.99
76592;BME280;65481;47.600;19.682;2023-04-24T11:11:36;99379.13;;;18.40;74.89
76592;BME280;65481;47.600;19.682;2023-04-24T11:16:53;99376.34;;;18.45;74.08
76592;BME280;65481;47.600;19.682;2023-04-24T11:22:02;99375.53;;;19.04;73.07
76592;BME280;65481;47.600;19.682;2023-04-24T11:32:17;99367.06;;;18.42;74.30
76592;BME280;65481;47.600;19.682;2023-04-24T11:37:19;99361.53;;;18.39;75.60
76592;BME280;65481;47.600;19.682;2023-04-24T11:42:20;99358.66;;;18.72;75.54
76592;BME280;65481;47.600;19.682;2023-04-24T11:47:29;99353.59;;;18.93;74.75
76592;BME280;65481;47.600;19.682;2023-04-24T11:52:31;99342.78;;;18.75;74.77
76592;BME280;65481;47.600;19.682;2023-04-24T11:57:31;99338.88;;;18.36;77.69
76592;BME280;65481;47.600;19.682;2023-04-24T12:02:34;99329.53;;;18.11;79.74
76592;BME280;65481;47.600;19.682;2023-04-24T12:07:42;99320.06;;;17.91;81.07
76592;BME280;65481;47.600;19.682;2023-04-24T12:12:45;99317.03;;;17.69;84.62
76592;BME280;65481;47.600;19.682;2023-04-24T12:17:47;99299.53;;;17.49;88.26
76592;BME280;65481;47.600;19.682;2023-04-24T12:22:52;99303.59;;;17.47;91.26
76592;BME280;65481;47.600;19.682;2023-04-24T12:28:10;99299.38;;;17.60;92.82
76592;BME280;65481;47.600;19.682;2023-04-24T12:33:11;99298.47;;;17.78;91.83
76592;BME280;65481;47.600;19.682;2023-04-24T12:38:13;99280.94;;;18.00;90.58
76592;BME280;65481;47.600;19.682;2023-04-24T12:43:15;99269.53;;;18.22;88.69
76592;BME280;65481;47.600;19.682;2023-04-24T12:48:16;99256.28;;;18.17;88.57
76592;BME280;65481;47.600;19.682;2023-04-24T12:53:16;99245.00;;;18.20;83.83
76592;BME280;65481;47.600;19.682;2023-04-24T12:58:17;99250.06;;;18.08;77.17
76592;BME280;65481;47.600;19.682;2023-04-24T13:03:18;99250.38;;;17.41;86.10
76592;BME280;65481;47.600;19.682;2023-04-24T13:08:18;99233.91;;;17.12;87.69
76592;BME280;65481;47.600;19.682;2023-04-24T13:13:19;99224.69;;;17.18;91.02
76592;BME280;65481;47.600;19.682;2023-04-24T13:18:20;99217.16;;;16.92;92.61
76592;BME280;65481;47.600;19.682;2023-04-24T13:23:20;99210.44;;;16.80;92.32
76592;BME280;65481;47.600;19.682;2023-04-24T13:28:21;99232.47;;;16.01;100.00
76592;BME280;65481;47.600;19.682;2023-04-24T13:33:23;99240.84;;;15.26;100.00
76592;BME280;65481;47.600;19.682;2023-04-24T13:38:24;99236.59;;;14.66;100.00
76592;BME280;65481;47.600;19.682;2023-04-24T13:43:24;99226.66;;;14.48;100.00
76592;BME280;65481;47.600;19.682;2023-04-24T13:48:25;99225.91;;;14.47;100.00
76592;BME280;65481;47.600;19.682;2023-04-24T13:53:25;99219.59;;;14.67;100.00
76592;BME280;65481;47.600;19.682;2023-04-24T13:58:26;99221.94;;;15.04;100.00
76592;BME280;65481;47.600;19.682;2023-04-24T14:03:27;99222.75;;;15.28;100.00
76592;BME280;65481;47.600;19.682;2023-04-24T14:08:27;99219.44;;;15.37;100.00
76592;BME280;65481;47.600;19.682;2023-04-24T14:13:28;99223.28;;;15.50;100.00
76592;BME280;65481;47.600;19.682;2023-04-24T14:18:29;99221.69;;;15.49;100.00
76592;BME280;65481;47.600;19.682;2023-04-24T14:23:30;99213.66;;;15.54;100.00
76592;BME280;65481;47.600;19.682;2023-04-24T14:28:30;99209.47;;;15.48;100.00
76592;BME280;65481;47.600;19.682;2023-04-24T14:33:31;99206.91;;;15.42;100.00
76592;BME280;65481;47.600;19.682;2023-04-24T14:38:31;99210.63;;;15.41;100.00
76592;BME280;65481;47.600;19.682;2023-04-24T14:43:32;99214.28;;;15.45;100.00
76592;BME280;65481;47.600;19.682;2023-04-24T14:48:34;99217.97;;;15.50;100.00
76592;BME280;65481;47.600;19.682;2023-04-24T14:53:34;99221.91;;;15.52;100.00
76592;BME280;65481;47.600;19.682;2023-04-24T14:58:35;99224.13;;;15.45;100.00
76592;BME280;65481;47.600;19.682;2023-04-24T15:03:36;99216.28;;;15.35;100.00
76592;BME280;65481;47.600;19.682;2023-04-24T15:08:36;99217.81;;;15.17;100.00
76592;BME280;65481;47.600;19.682;2023-04-24T15:13:37;99208.88;;;15.07;100.00
76592;BME280;65481;47.600;19.682;2023-04-24T15:18:38;99212.34;;;15.08;100.00
76592;BME280;65481;47.600;19.682;2023-04-24T15:23:38;99211.06;;;15.05;100.00
76592;BME280;65481;47.600;19.682;2023-04-24T15:28:39;99203.72;;;14.92;100.00
76592;BME280;65481;47.600;19.682;2023-04-24T15:33:39;99204.09;;;14.80;100.00
76592;BME280;65481;47.600;19.682;2023-04-24T15:38:40;99210.34;;;14.65;100.00
76592;BME280;65481;47.600;19.682;2023-04-24T15:43:40;99202.22;;;14.51;100.00
76592;BME280;65481;47.600;19.682;2023-04-24T15:48:41;99202.56;;;14.44;100.00
76592;BME280;65481;47.600;19.682;2023-04-24T15:53:42;99207.66;;;14.35;100.00
76592;BME280;65481;47.600;19.682;2023-04-24T15:58:43;99208.50;;;14.31;100.00
76592;BME280;65481;47.600;19.682;2023-04-24T16:03:43;99199.22;;;14.28;100.00
76592;BME280;65481;47.600;19.682;2023-04-24T16:08:44;99209.09;;;14.22;100.00
76592;BME280;65481;47.600;19.682;2023-04-24T16:13:44;99210.19;;;14.16;100.00
76592;BME280;65481;47.600;19.682;2023-04-24T16:18:45;99212.09;;;14.11;100.00
76592;BME280;65481;47.600;19.682;2023-04-24T16:23:46;99214.00;;;14.05;100.00
76592;BME280;65481;47.600;19.682;2023-04-24T16:28:47;99204.69;;;14.07;100.00
76592;BME280;65481;47.600;19.682;2023-04-24T16:33:47;99210.75;;;14.13;100.00
76592;BME280;65481;47.600;19.682;2023-04-24T16:38:48;99207.81;;;14.15;100.00
76592;BME280;65481;47.600;19.682;2023-04-24T16:43:48;99200.63;;;14.20;100.00
76592;BME280;65481;47.600;19.682;2023-04-24T16:48:50;99196.88;;;14.21;100.00
76592;BME280;65481;47.600;19.682;2023-04-24T16:53:51;99204.94;;;14.11;100.00
76592;BME280;65481;47.600;19.682;2023-04-24T16:58:52;99207.03;;;14.14;100.00
76592;BME280;65481;47.600;19.682;2023-04-24T17:03:53;99204.41;;;14.09;100.00
76592;BME280;65481;47.600;19.682;2023-04-24T17:08:54;99206.84;;;14.05;100.00
76592;BME280;65481;47.600;19.682;2023-04-24T17:13:54;99215.88;;;13.99;100.00
76592;BME280;65481;47.600;19.682;2023-04-24T17:18:55;99215.69;;;13.85;100.00
76592;BME280;65481;47.600;19.682;2023-04-24T17:23:56;99218.09;;;13.87;100.00
76592;BME280;65481;47.600;19.682;2023-04-24T17:28:56;99224.47;;;13.81;100.00
76592;BME280;65481;47.600;19.682;2023-04-24T17:33:57;99219.19;;;13.81;100.00
76592;BME280;65481;47.600;19.682;2023-04-24T17:38:59;99221.00;;;13.85;100.00
76592;BME280;65481;47.600;19.682;2023-04-24T17:44:00;99218.34;;;13.85;100.00
76592;BME280;65481;47.600;19.682;2023-04-24T17:49:00;99221.06;;;13.75;100.00
76592;BME280;65481;47.600;19.682;2023-04-24T17:54:01;99230.63;;;13.71;100.00
76592;BME280;65481;47.600;19.682;2023-04-24T17:59:02;99227.44;;;13.74;100.00
76592;BME280;65481;47.600;19.682;2023-04-24T18:04:02;99236.44;;;13.78;100.00
76592;BME280;65481;47.600;19.682;2023-04-24T18:09:03;99231.59;;;13.85;100.00
76592;BME280;65481;47.600;19.682;2023-04-24T18:14:03;99228.91;;;13.96;100.00
76592;BME280;65481;47.600;19.682;2023-04-24T18:19:04;99232.56;;;14.00;100.00
76592;BME280;65481;47.600;19.682;2023-04-24T18:24:05;99239.47;;;14.01;100.00
76592;BME280;65481;47.600;19.682;2023-04-24T18:29:06;99241.34;;;14.00;100.00
76592;BME280;65481;47.600;19.682;2023-04-24T18:34:06;99240.28;;;14.01;100.00
76592;BME280;65481;47.600;19.682;2023-04-24T18:39:07;99244.00;;;14.00;100.00
76592;BME280;65481;47.600;19.682;2023-04-24T18:44:08;99248.19;;;14.06;100.00
76592;BME280;65481;47.600;19.682;2023-04-24T18:49:10;99250.59;;;14.03;100.00
76592;BME280;65481;47.600;19.682;2023-04-24T18:54:11;99247.72;;;13.99;100.00
76592;BME280;65481;47.600;19.682;2023-04-24T18:59:12;99261.84;;;13.84;100.00
76592;BME280;65481;47.600;19.682;2023-04-24T19:04:13;99256.59;;;13.74;100.00
76592;BME280;65481;47.600;19.682;2023-04-24T19:09:15;99261.13;;;13.68;100.00
76592;BME280;65481;47.600;19.682;2023-04-24T19:14:16;99263.28;;;13.61;100.00
76592;BME280;65481;47.600;19.682;2023-04-24T19:19:18;99264.06;;;13.61;100.00
76592;BME280;65481;47.600;19.682;2023-04-24T19:24:19;99259.03;;;13.60;100.00
76592;BME280;65481;47.600;19.682;2023-04-24T19:29:20;99263.50;;;13.65;100.00
76592;BME280;65481;47.600;19.682;2023-04-24T19:34:21;99259.56;;;13.62;100.00
76592;BME280;65481;47.600;19.682;2023-04-24T19:39:22;99262.47;;;13.60;100.00
76592;BME280;65481;47.600;19.682;2023-04-24T19:44:23;99263.03;;;13.57;100.00
76592;BME280;65481;47.600;19.682;2023-04-24T19:49:24;99266.75;;;13.56;100.00
76592;BME280;65481;47.600;19.682;2023-04-24T19:54:25;99261.16;;;13.58;100.00
76592;BME280;65481;47.600;19.682;2023-04-24T19:59:26;99257.16;;;13.60;100.00
76592;BME280;65481;47.600;19.682;2023-04-24T20:04:26;99258.75;;;13.61;100.00
76592;BME280;65481;47.600;19.682;2023-04-24T20:09:28;99261.41;;;13.61;100.00
76592;BME280;65481;47.600;19.682;2023-04-24T20:14:28;99256.91;;;13.57;100.00
76592;BME280;65481;47.600;19.682;2023-04-24T20:19:29;99254.56;;;13.50;100.00
76592;BME280;65481;47.600;19.682;2023-04-24T20:24:29;99254.84;;;13.43;100.00
76592;BME280;65481;47.600;19.682;2023-04-24T20:29:30;99247.19;;;13.31;100.00
76592;BME280;65481;47.600;19.682;2023-04-24T20:34:30;99246.13;;;13.27;100.00
76592;BME280;65481;47.600;19.682;2023-04-24T20:39:31;99243.50;;;13.22;100.00
76592;BME280;65481;47.600;19.682;2023-04-24T20:44:31;99243.75;;;13.21;100.00
76592;BME280;65481;47.600;19.682;2023-04-24T20:49:32;99248.28;;;13.20;100.00
76592;BME280;65481;47.600;19.682;2023-04-24T20:54:32;99253.56;;;13.20;100.00
76592;BME280;65481;47.600;19.682;2023-04-24T20:59:33;99254.38;;;13.10;100.00
76592;BME280;65481;47.600;19.682;2023-04-24T21:04:34;99246.69;;;13.09;100.00
76592;BME280;65481;47.600;19.682;2023-04-24T21:09:37;99239.84;;;12.92;100.00
76592;BME280;65481;47.600;19.682;2023-04-24T21:14:38;99242.25;;;12.88;100.00
76592;BME280;65481;47.600;19.682;2023-04-24T21:19:38;99244.63;;;12.80;100.00
76592;BME280;65481;47.600;19.682;2023-04-24T21:24:39;99237.50;;;12.75;100.00
76592;BME280;65481;47.600;19.682;2023-04-24T21:29:40;99240.41;;;12.63;100.00
76592;BME280;65481;47.600;19.682;2023-04-24T21:34:43;99237.75;;;12.58;100.00
76592;BME280;65481;47.600;19.682;2023-04-24T21:39:43;99233.28;;;12.53;100.00
76592;BME280;65481;47.600;19.682;2023-04-24T21:44:52;99233.81;;;12.55;100.00
76592;BME280;65481;47.600;19.682;2023-04-24T21:49:53;99231.94;;;12.56;100.00
76592;BME280;65481;47.600;19.682;2023-04-24T21:54:53;99226.63;;;12.51;100.00
76592;BME280;65481;47.600;19.682;2023-04-24T21:59:54;99225.31;;;12.48;100.00
76592;BME280;65481;47.600;19.682;2023-04-24T22:04:55;99207.59;;;12.44;100.00
76592;BME280;65481;47.600;19.682;2023-04-24T22:09:56;99210.78;;;12.40;100.00
76592;BME280;65481;47.600;19.682;2023-04-24T22:14:56;99205.22;;;12.47;100.00
76592;BME280;65481;47.600;19.682;2023-04-24T22:19:57;99206.81;;;12.48;100.00
76592;BME280;65481;47.600;19.682;2023-04-24T22:24:58;99209.72;;;12.47;100.00
76592;BME280;65481;47.600;19.682;2023-04-24T22:29:58;99211.31;;;12.42;100.00
76592;BME280;65481;47.600;19.682;2023-04-24T22:34:59;99209.19;;;12.39;100.00
76592;BME280;65481;47.600;19.682;2023-04-24T22:39:59;99202.31;;;12.38;100.00
76592;BME280;65481;47.600;19.682;2023-04-24T22:45:01;99193.84;;;12.47;100.00
76592;BME280;65481;47.600;19.682;2023-04-24T22:50:01;99199.69;;;12.49;100.00
76592;BME280;65481;47.600;19.682;2023-04-24T22:55:02;99192.78;;;12.42;100.00
76592;BME280;65481;47.600;19.682;2023-04-24T23:00:04;99191.19;;;12.36;100.00
76592;BME280;65481;47.600;19.682;2023-04-24T23:05:10;99182.22;;;12.27;100.00
76592;BME280;65481;47.600;19.682;2023-04-24T23:10:11;99182.47;;;12.25;100.00
76592;BME280;65481;47.600;19.682;2023-04-24T23:15:11;99174.53;;;12.25;100.00
76592;BME280;65481;47.600;19.682;2023-04-24T23:20:12;99178.50;;;12.28;100.00
76592;BME280;65481;47.600;19.682;2023-04-24T23:25:13;99181.13;;;12.33;100.00
76592;BME280;65481;47.600;19.682;2023-04-24T23:30:13;99177.47;;;12.29;100.00
76592;BME280;65481;47.600;19.682;2023-04-24T23:35:14;99177.72;;;12.22;100.00
76592;BME280;65481;47.600;19.682;2023-04-24T23:40:15;99172.16;;;12.24;100.00
76592;BME280;65481;47.600;19.682;2023-04-24T23:45:15;99165.78;;;12.15;100.00
76592;BME280;65481;47.600;19.682;2023-04-24T23:50:16;99164.22;;;12.08;100.00
76592;BME280;65481;47.600;19.682;2023-04-24T23:55:16;99152.59;;;12.09;100.00
